AFR4 EHAM-TNCC
Flight info
| Callsign | AFR4 |
|---|---|
| Flight time | N/A |
| Altitude | 36000 |
| Route | IDRID L980 MANGO DCT ENHAQ DCT GAJIT DCT GAPLI/M081F360 DCT OMOKO DCT 48N015W 47N020W 43N030W/M081F380 37N040W 31N050W/M081F400 DCT FIVZE DCT OPAUL/N0466F400 L327 SCAPA SCAPA1B |
| Aircraft | A333/H-SDE3GHIJ2J3J5M1RVWXY/LB2D1 |
Departure
| Time | N/A |
|---|---|
| Airport | Amsterdam Airport Schiphol (EHAM) |
Arrival
| Time | 2026-05-03 20:33 |
|---|---|
| Airport | Hato International Airport (TNCC) |
| Time | Latitude | Longitude | Altitude | Speed | Heading |
|---|---|---|---|---|---|
| 2026-05-03 20:15 | 13.18741 | -68.85089 | 37960 ft | 457 kts | 210° |
| 2026-05-03 20:15 | 13.13027 | -68.87966 | 37952 ft | 456 kts | 209° |
| 2026-05-03 20:15 | 13.10176 | -68.89402 | 37698 ft | 456 kts | 209° |
| 2026-05-03 20:16 | 13.07319 | -68.90840 | 37243 ft | 454 kts | 209° |
| 2026-05-03 20:16 | 13.04508 | -68.92253 | 37053 ft | 445 kts | 209° |
| 2026-05-03 20:16 | 13.01748 | -68.93639 | 36895 ft | 436 kts | 210° |
| 2026-05-03 20:16 | 12.99054 | -68.94993 | 36768 ft | 427 kts | 210° |
| 2026-05-03 20:17 | 12.96403 | -68.96326 | 36388 ft | 423 kts | 210° |
| 2026-05-03 20:17 | 12.93743 | -68.97666 | 35684 ft | 429 kts | 209° |
| 2026-05-03 20:17 | 12.91061 | -68.99018 | 34780 ft | 440 kts | 209° |
| 2026-05-03 20:17 | 12.88281 | -69.00417 | 33873 ft | 450 kts | 209° |
| 2026-05-03 20:18 | 12.85465 | -69.01833 | 32868 ft | 451 kts | 209° |
| 2026-05-03 20:18 | 12.82662 | -69.03238 | 31915 ft | 446 kts | 209° |
| 2026-05-03 20:18 | 12.79885 | -69.04631 | 30797 ft | 445 kts | 209° |
| 2026-05-03 20:18 | 12.77096 | -69.06030 | 29477 ft | 448 kts | 209° |
| 2026-05-03 20:19 | 12.74291 | -69.07438 | 28059 ft | 450 kts | 209° |
| 2026-05-03 20:19 | 12.71475 | -69.08850 | 26702 ft | 450 kts | 208° |
| 2026-05-03 20:19 | 12.68669 | -69.10256 | 25416 ft | 448 kts | 208° |
| 2026-05-03 20:19 | 12.65870 | -69.11659 | 24194 ft | 445 kts | 208° |
| 2026-05-03 20:20 | 12.63102 | -69.13046 | 22904 ft | 442 kts | 207° |
| 2026-05-03 20:20 | 12.60349 | -69.14426 | 21518 ft | 439 kts | 206° |
| 2026-05-03 20:20 | 12.57616 | -69.15796 | 20195 ft | 434 kts | 205° |
| 2026-05-03 20:20 | 12.54953 | -69.17205 | 18946 ft | 429 kts | 203° |
| 2026-05-03 20:21 | 12.52154 | -69.18112 | 17650 ft | 417 kts | 185° |
| 2026-05-03 20:21 | 12.49299 | -69.18066 | 16221 ft | 408 kts | 168° |
| 2026-05-03 20:21 | 12.46549 | -69.17451 | 14809 ft | 403 kts | 165° |
| 2026-05-03 20:21 | 12.43804 | -69.16885 | 13411 ft | 400 kts | 167° |
| 2026-05-03 20:22 | 12.41072 | -69.16471 | 11929 ft | 396 kts | 171° |
| 2026-05-03 20:22 | 12.38353 | -69.16167 | 10505 ft | 390 kts | 172° |
| 2026-05-03 20:22 | 12.35664 | -69.15930 | 9073 ft | 385 kts | 172° |
| 2026-05-03 20:22 | 12.33012 | -69.15733 | 7623 ft | 379 kts | 173° |
| 2026-05-03 20:23 | 12.30421 | -69.15803 | 6228 ft | 377 kts | 189° |
| 2026-05-03 20:23 | 12.27990 | -69.16741 | 5050 ft | 372 kts | 209° |
| 2026-05-03 20:23 | 12.26123 | -69.18468 | 4430 ft | 353 kts | 231° |
| 2026-05-03 20:23 | 12.25095 | -69.20645 | 4112 ft | 330 kts | 254° |
| 2026-05-03 20:24 | 12.24998 | -69.22881 | 3968 ft | 304 kts | 280° |
| 2026-05-03 20:24 | 12.25749 | -69.24784 | 3826 ft | 279 kts | 307° |
| 2026-05-03 20:24 | 12.27122 | -69.26052 | 3599 ft | 257 kts | 335° |
| 2026-05-03 20:24 | 12.28757 | -69.26542 | 3336 ft | 237 kts | 359° |
| 2026-05-03 20:25 | 12.30363 | -69.26554 | 3107 ft | 226 kts | 13° |
| 2026-05-03 20:25 | 12.31819 | -69.26056 | 2842 ft | 217 kts | 38° |
| 2026-05-03 20:25 | 12.32828 | -69.24993 | 2650 ft | 204 kts | 65° |
| 2026-05-03 20:25 | 12.33176 | -69.23653 | 2426 ft | 199 kts | 90° |
| 2026-05-03 20:26 | 12.32804 | -69.22275 | 2172 ft | 210 kts | 122° |
| 2026-05-03 20:26 | 12.31715 | -69.21252 | 2020 ft | 216 kts | 140° |
| 2026-05-03 20:26 | 12.30467 | -69.20386 | 2011 ft | 217 kts | 142° |
| 2026-05-03 20:26 | 12.29204 | -69.19528 | 2005 ft | 219 kts | 142° |
| 2026-05-03 20:27 | 12.27943 | -69.18658 | 1996 ft | 219 kts | 141° |
| 2026-05-03 20:27 | 12.26699 | -69.17773 | 1998 ft | 217 kts | 138° |
| 2026-05-03 20:27 | 12.25539 | -69.16809 | 1995 ft | 212 kts | 133° |
| 2026-05-03 20:27 | 12.24516 | -69.15735 | 1995 ft | 210 kts | 126° |
| 2026-05-03 20:28 | 12.23639 | -69.14552 | 1997 ft | 208 kts | 120° |
| 2026-05-03 20:28 | 12.22915 | -69.13278 | 1991 ft | 207 kts | 114° |
| 2026-05-03 20:28 | 12.22351 | -69.11934 | 1996 ft | 205 kts | 107° |
| 2026-05-03 20:28 | 12.21951 | -69.10551 | 1992 ft | 197 kts | 102° |
| 2026-05-03 20:29 | 12.21667 | -69.09258 | 2007 ft | 174 kts | 101° |
| 2026-05-03 20:29 | 12.21435 | -69.08131 | 2007 ft | 151 kts | 100° |
| 2026-05-03 20:29 | 12.21235 | -69.07161 | 2007 ft | 128 kts | 100° |
| 2026-05-03 20:29 | 12.21054 | -69.06294 | 1905 ft | 123 kts | 99° |
| 2026-05-03 20:30 | 12.20876 | -69.05440 | 1728 ft | 122 kts | 99° |
| 2026-05-03 20:30 | 12.20701 | -69.04595 | 1566 ft | 123 kts | 97° |
| 2026-05-03 20:30 | 12.20522 | -69.03736 | 1388 ft | 124 kts | 98° |
| 2026-05-03 20:30 | 12.20346 | -69.02880 | 1220 ft | 123 kts | 99° |
| 2026-05-03 20:31 | 12.20168 | -69.02031 | 1035 ft | 122 kts | 101° |
| 2026-05-03 20:31 | 12.19990 | -69.01184 | 881 ft | 122 kts | 100° |
| 2026-05-03 20:31 | 12.19811 | -69.00328 | 736 ft | 125 kts | 103° |
| 2026-05-03 20:31 | 12.19627 | -68.99459 | 569 ft | 124 kts | 103° |
| 2026-05-03 20:32 | 12.19444 | -68.98617 | 375 ft | 119 kts | 100° |
| 2026-05-03 20:32 | 12.19269 | -68.97776 | 202 ft | 121 kts | 103° |
| 2026-05-03 20:32 | 12.19098 | -68.96945 | 100 ft | 121 kts | 101° |
| 2026-05-03 20:32 | 12.18931 | -68.96129 | 34 ft | 101 kts | 103° |
| 2026-05-03 20:33 | 12.18817 | -68.95626 | 29 ft | 44 kts | 102° |
| 2026-05-03 20:33 | 12.18784 | -68.95465 | 30 ft | 16 kts | 108° |
| 2026-05-03 20:33 | 12.18722 | -68.95400 | 31 ft | 11 kts | 188° |
| 2026-05-03 20:33 | 12.18646 | -68.95420 | 31 ft | 11 kts | 203° |
| 2026-05-03 20:34 | 12.18609 | -68.95485 | 32 ft | 10 kts | 266° |
| 2026-05-03 20:34 | 12.18596 | -68.95549 | 32 ft | 9 kts | 226° |
| 2026-05-03 20:34 | 12.18546 | -68.95562 | 32 ft | 8 kts | 195° |
| 2026-05-03 20:34 | 12.18540 | -68.95564 | 32 ft | 0 kts | 199° |